Adams, Kentucky
Current Conditions -  °F | °C
As of 11:55 AM on Saturday 22 Nov 2014 (Local Time) from KSJS Reporting Station
Scattered Clouds Scattered Clouds  
Wind Chill: 55°   Ceiling: Unl
Heat Index: 55°   Visibility: 10mi
Dew Point: 25°   Wind: 7mph
Humidity: 32%   Direction: 200°SSW
Pressure: 30.32"   Gusts: NA
Location:  38.05°N, 82.71°W
Report Text: KSJS 221655Z AUTO 20006KT 10SM SCT002 13/M04 A3032 RMK AO2 T01261038
Loading
Personal Weather Stations






























Interactive Weather Map New forecast layout! Learn more

10-Day Weather Forecast

Advertisements
Track Severe Weather on mobile